METAR Reports

Area Airport Weather Conditions

KBDL - Windsor Locks, Connecticut, USA
Distance from station: NE 45mi, 72km
Updated: 3:51AM EDT, May 22, 2019
Clear
Clear
 Wind from WNW
Wind: WNW 7 mph , 11 km/h
Temperature: 52°F , 11°C
Dew Point: 36°F , 2°C
Humidity: 54%
Barometer: 30.09 inHg , 1019 hPa
Clouds: Clear
Visibility: 10 miles , 16 km
2019/05/22 07:51 KBDL 220751Z 29006KT 10SM CLR 11/02 A3009 RMK AO2 SLP188 T01110017
KDXR - Danbury, Connecticut, USA
Distance from station: SSW 15mi, 24km
Updated: 2:53AM EDT, May 22, 2019
Clear
Clear
 Wind from NNE
Wind: NNE 3 mph , 6 km/h
Temperature: 46°F , 8°C
Dew Point: 37°F , 3°C
Humidity: 71%
Barometer: 30.13 inHg , 1020.3 hPa
Clouds: Clear
Visibility: 10 miles , 16 km
2019/05/22 06:53 KDXR 220653Z AUTO 03003KT 10SM CLR 08/03 A3013 RMK AO2 SLP201 T00830033
 
KOXC - Oxford/Waterbury, Connecticut, USA
Distance from station: ESE 16mi, 26km
Updated: 3:51AM EDT, May 22, 2019
Clear
Clear
 Wind from WNW
Wind: WNW 5 mph , 7 km/h
Temperature: 48°F , 9°C
Wind Chill: 46°F , 8°C
Dew Point: 37°F , 3°C
Humidity: 66%
Barometer: 30.13 inHg , 1020.3 hPa
Clouds: Clear
Visibility: 10 miles , 16 km
2019/05/22 07:51 KOXC 220751Z AUTO 30004KT 10SM CLR 09/03 A3013 RMK AO2 SLP213 T00940033 PNO $
KPOU - Poughkeepsie, New York, USA
Distance from station: W 25mi, 40km
Updated: 2:53AM EDT, May 22, 2019
Clear
Clear
 Wind from E
Wind: E 3 mph , 6 km/h
Temperature: 43°F , 6°C
Dew Point: 39°F , 4°C
Humidity: 87%
Barometer: 30.11 inHg , 1019.6 hPa
Clouds: Clear
Visibility: 10 miles , 16 km
2019/05/22 06:53 KPOU 220653Z 10003KT 10SM CLR 06/04 A3011 RMK AO2 SLP195 T00610044
 
KMMK - Meriden, Connecticut, USA
Distance from station: E 30mi, 48km
Updated: 2:53AM EDT, May 22, 2019
Clear
Clear
 Wind from WNW
Wind: WNW 6 mph , 9 km/h
Temperature: 50°F , 10°C
Wind Chill: 48°F , 9°C
Dew Point: 39°F , 4°C
Humidity: 67%
Barometer: 30.10 inHg , 1019.3 hPa
Clouds: Clear
Visibility: 10 miles , 16 km
2019/05/22 06:53 KMMK 220653Z AUTO 29005KT 10SM CLR 10/04 A3010 RMK AO2 SLP191 T01000044
KBDR - Bridgeport, Connecticut, USA
Distance from station: SSE 32mi, 51km
Updated: 2:52AM EDT, May 22, 2019
Clear
Clear
 Wind from WNW
Wind: WNW 8 mph , 13 km/h
Temperature: 54°F , 12°C
Dew Point: 39°F , 4°C
Humidity: 58%
Barometer: 30.11 inHg , 1019.6 hPa
Clouds: Clear
Visibility: 10 miles , 16 km
2019/05/22 06:52 KBDR 220652Z AUTO 30007KT 10SM CLR 12/04 A3011 RMK AO2 SLP195 T01170039 $
 
KHVN - New Haven/Tweed, Connecticut, USA
Distance from station: SE 35mi, 57km
Updated: 2:53AM EDT, May 22, 2019
Clear
Clear
 Wind from NW
Wind: NW 5 mph , 7 km/h
Temperature: 57°F , 14°C
Dew Point: 39°F , 4°C
Humidity: 51%
Barometer: 30.10 inHg , 1019.3 hPa
Clouds: Clear
Visibility: 10 miles , 16 km
2019/05/22 06:53 KHVN 220653Z AUTO 32004KT 10SM CLR 14/04 A3010 RMK AO2 SLP192 T01390044
KSWF - Newburgh/Stewart, New York, USA
Distance from station: W 35mi, 57km
Updated: 3:45AM EDT, May 22, 2019
Clear
Clear
 Wind from W
Wind: W 7 mph , 11 km/h
Temperature: 46°F , 8°C
Wind Chill: 42°F , 6°C
Dew Point: 41°F , 5°C
Humidity: 82%
Barometer: 30.14 inHg , 1020.7 hPa
Clouds: Clear
Visibility: 10 miles , 16 km
2019/05/22 07:45 KSWF 220745Z 27006KT 10SM SKC 08/05 A3014
 
KHPN - White Plains, New York, USA
Distance from station: SSW 38mi, 62km
Updated: 2:56AM EDT, May 22, 2019
Clear
Clear
 Wind from W
Wind: W 7 mph , 11 km/h
Temperature: 54°F , 12°C
Dew Point: 37°F , 3°C
Humidity: 54%
Barometer: 30.12 inHg , 1020 hPa
Clouds: Clear
Visibility: 10 miles , 16 km
2019/05/22 06:56 KHPN 220656Z 28006KT 10SM CLR 12/03 A3012 RMK AO2 SLP197 T01170033
KHFD - Hartford/Brainar, Connecticut, USA
Distance from station: ENE 41mi, 65km
Updated: 2:53AM EDT, May 22, 2019
Clear
Clear
 Wind from WNW
Wind: WNW 3 mph , 6 km/h
Temperature: 54°F , 12°C
Dew Point: 36°F , 2°C
Humidity: 51%
Barometer: 30.09 inHg , 1019 hPa
Clouds: Clear
Visibility: 10 miles , 16 km
2019/05/22 06:53 KHFD 220653Z AUTO 30003KT 10SM CLR 12/02 A3009 RMK AO2 SLP188 T01220017